Time;durP1;ratioP1;P1;durP2;ratioP2;P2;SDS_P1;SDS_P2;PMS_P1;PMS_P2;Temp;Humidity;BMP_temperature;BMP_pressure;BME280_temperature;BME280_humidity;BME280_pressure;Samples;Min_cycle;Max_cycle;Signal;HPM_P1;HPM_P2
2022/03/21 00:01:41;;;;;;;;;67.00;48.75;;;;;10.04;51.95;102359.16;5098289;27;45355;-55
2022/03/21 00:04:07;;;;;;;;;64.25;47.75;;;;;9.97;51.72;102350.72;5098441;27;45295;-53
2022/03/21 00:06:32;;;;;;;;;63.00;48.00;;;;;9.99;52.07;102354.16;5098295;27;46980;-54
2022/03/21 00:08:58;;;;;;;;;66.50;47.00;;;;;9.99;52.37;102359.47;5098214;27;45948;-54
2022/03/21 00:11:24;;;;;;;;;62.00;44.50;;;;;10.00;51.37;102357.66;5098330;27;45601;-54
2022/03/21 00:13:53;;;;;;;;;63.75;52.00;;;;;9.97;52.62;102360.53;5098179;27;45448;-52
2022/03/21 00:16:19;;;;;;;;;52.25;42.50;;;;;9.97;52.02;102355.22;5097999;27;46350;-53
2022/03/21 00:18:45;;;;;;;;;61.50;49.25;;;;;9.98;52.66;102364.88;5096955;27;45525;-54
2022/03/21 00:21:10;;;;;;;;;66.00;50.00;;;;;9.87;51.45;102348.81;5097939;27;46257;-54
2022/03/21 00:23:36;;;;;;;;;62.50;44.75;;;;;9.94;52.29;102369.56;5098355;27;45438;-54
2022/03/21 00:26:02;;;;;;;;;65.25;47.50;;;;;9.93;52.91;102364.34;5097913;27;45688;-53
2022/03/21 00:28:27;;;;;;;;;68.75;51.00;;;;;9.92;52.73;102368.81;5097737;27;45387;-54
2022/03/21 00:30:53;;;;;;;;;66.00;47.50;;;;;9.90;51.85;102359.22;5098023;27;45315;-52
2022/03/21 00:33:19;;;;;;;;;68.75;49.00;;;;;9.90;52.65;102357.44;5098012;27;45359;-52
2022/03/21 00:35:48;;;;;;;;;61.00;46.75;;;;;9.81;52.42;102352.72;5097622;27;45405;-52
2022/03/21 00:38:15;;;;;;;;;70.75;52.25;;;;;9.88;53.27;102361.16;5097725;27;45298;-53
2022/03/21 00:40:44;;;;;;;;;65.50;50.25;;;;;9.87;53.06;102367.41;5097558;27;45472;-52
2022/03/21 00:43:10;;;;;;;;;63.00;44.50;;;;;9.87;53.35;102370.09;5097824;27;45355;-52
2022/03/21 00:45:35;;;;;;;;;73.50;51.00;;;;;9.75;52.93;102355.78;5097584;27;45812;-54
2022/03/21 00:48:01;;;;;;;;;56.25;42.25;;;;;9.86;52.28;102365.69;5097417;27;45335;-53
2022/03/21 00:50:27;;;;;;;;;53.25;39.25;;;;;9.83;53.28;102361.47;5097593;27;45544;-53
2022/03/21 00:52:55;;;;;;;;;58.50;45.25;;;;;9.82;52.79;102372.16;5097868;27;45374;-54
2022/03/21 00:55:24;;;;;;;;;63.00;47.50;;;;;9.82;53.52;102364.19;5097069;27;46219;-54
2022/03/21 00:57:50;;;;;;;;;68.75;48.00;;;;;9.83;53.56;102365.91;5097592;27;45351;-55
2022/03/21 01:00:20;;;;;;;;;55.25;41.25;;;;;9.81;52.00;102362.50;5097476;27;45505;-55
2022/03/21 01:02:46;;;;;;;;;72.00;48.25;;;;;9.72;52.35;102356.00;5097596;27;45475;-54
2022/03/21 01:05:12;;;;;;;;;58.25;43.00;;;;;9.78;53.37;102354.75;5097262;27;45992;-53
2022/03/21 01:07:40;;;;;;;;;73.25;52.25;;;;;9.74;52.62;102351.44;5097192;27;45375;-53
2022/03/21 01:10:07;;;;;;;;;67.25;49.75;;;;;9.79;53.20;102356.44;5097494;27;45393;-53
2022/03/21 01:12:32;;;;;;;;;69.00;50.00;;;;;9.81;52.10;102355.38;5097653;27;45239;-53
2022/03/21 01:14:59;;;;;;;;;65.00;47.00;;;;;9.83;52.66;102360.59;5097120;27;45422;-53
2022/03/21 01:17:24;;;;;;;;;63.00;50.00;;;;;9.85;52.22;102358.69;5097259;27;45336;-53
2022/03/21 01:19:50;;;;;;;;;67.75;50.50;;;;;9.86;53.59;102360.38;5096826;27;45328;-54
2022/03/21 01:22:16;;;;;;;;;69.75;50.50;;;;;9.90;53.16;102357.44;5097496;27;45327;-52
2022/03/21 01:24:41;;;;;;;;;68.50;50.75;;;;;9.87;52.42;102351.47;5095590;27;46189;-53
2022/03/21 01:27:09;;;;;;;;;65.50;51.00;;;;;9.95;52.85;102363.28;5096351;27;45427;-53
2022/03/21 01:29:35;;;;;;;;;67.50;51.00;;;;;9.94;51.77;102371.34;5097229;27;45307;-53
2022/03/21 01:32:00;;;;;;;;;66.00;50.00;;;;;9.89;53.03;102349.56;5097478;27;45251;-54
2022/03/21 01:34:26;;;;;;;;;57.50;42.25;;;;;9.97;52.52;102360.53;5096498;27;47028;-53
2022/03/21 01:36:53;;;;;;;;;65.00;47.00;;;;;9.97;52.59;102363.19;5096863;27;45370;-53
2022/03/21 01:39:19;;;;;;;;;69.00;50.50;;;;;9.94;53.13;102360.72;5097231;27;45365;-50
2022/03/21 01:41:45;;;;;;;;;72.75;49.75;;;;;9.92;53.67;102363.50;5096840;27;45494;-52
2022/03/21 01:44:10;;;;;;;;;54.00;42.50;;;;;9.91;53.96;102361.78;5096903;27;45413;-53
2022/03/21 01:46:37;;;;;;;;;59.00;48.75;;;;;9.91;53.96;102359.13;5097073;27;45398;-53
2022/03/21 01:49:05;;;;;;;;;62.25;45.75;;;;;9.94;52.88;102360.72;5097104;27;45340;-51
2022/03/21 01:51:32;;;;;;;;;72.75;51.50;;;;;9.96;53.78;102361.47;5097227;27;45417;-52
2022/03/21 01:56:44;;;;;;;;;63.75;51.50;;;;;9.93;53.05;102359.88;5096724;27;45426;-53
2022/03/21 01:59:10;;;;;;;;;59.25;46.75;;;;;9.91;53.82;102360.94;5095267;27;45878;-52
2022/03/21 02:01:36;;;;;;;;;66.00;51.00;;;;;9.86;54.10;102365.69;5096655;27;45457;-54
2022/03/21 02:04:03;;;;;;;;;53.75;42.75;;;;;9.75;54.92;102358.44;5096463;27;46204;-51
2022/03/21 02:06:28;;;;;;;;;62.25;48.00;;;;;9.77;54.00;102372.47;5096249;27;45452;-53
2022/03/21 02:08:58;;;;;;;;;72.75;54.50;;;;;9.80;54.19;102363.47;5096661;27;45807;-53
2022/03/21 02:11:27;;;;;;;;;72.00;50.25;;;;;9.81;54.74;102360.69;5096810;27;45253;-53
2022/03/21 02:13:58;;;;;;;;;66.75;49.50;;;;;9.71;53.90;102335.69;5096324;27;45405;-53
2022/03/21 02:16:28;;;;;;;;;71.75;50.00;;;;;9.86;54.29;102360.38;5096528;27;45462;-53
2022/03/21 02:18:55;;;;;;;;;70.25;52.00;;;;;9.88;53.91;102350.50;5096124;27;45544;-53
2022/03/21 02:21:47;;;;;;;;;64.00;49.75;;;;;9.90;53.85;102360.09;5096370;27;45219;-53
2022/03/21 02:24:29;;;;;;;;;73.50;50.50;;;;;9.91;53.32;102350.31;5096148;27;45462;-53
2022/03/21 02:26:58;;;;;;;;;62.50;48.50;;;;;9.78;54.74;102331.69;5096038;27;45463;-52
2022/03/21 02:29:26;;;;;;;;;69.25;45.50;;;;;9.88;54.43;102358.50;5096472;27;45294;-52
2022/03/21 02:31:55;;;;;;;;;70.25;51.00;;;;;9.87;54.79;102354.13;5096383;27;45448;-54
2022/03/21 02:34:24;;;;;;;;;63.00;49.50;;;;;9.85;55.17;102342.75;5095932;27;46287;-53
2022/03/21 02:36:53;;;;;;;;;65.00;48.25;;;;;9.88;55.11;102342.53;5096122;27;45403;-54
2022/03/21 02:39:20;;;;;;;;;62.25;49.00;;;;;9.85;53.66;102348.06;5098327;27;45447;-54
2022/03/21 02:41:45;;;;;;;;;57.75;44.00;;;;;9.86;54.82;102345.31;5099759;27;45446;-53
2022/03/21 02:44:11;;;;;;;;;60.75;48.00;;;;;9.85;54.37;102345.41;5099546;27;46087;-52
2022/03/21 02:46:37;;;;;;;;;65.00;50.00;;;;;9.82;55.31;102342.94;5099496;27;45488;-50
2022/03/21 02:49:03;;;;;;;;;62.25;47.00;;;;;9.83;55.16;102340.19;5099465;27;45243;-54
2022/03/21 02:51:32;;;;;;;;;70.25;49.50;;;;;9.87;55.10;102336.38;5099690;27;45481;-53
2022/03/21 02:53:57;;;;;;;;;63.00;46.25;;;;;9.89;55.44;102337.09;5099422;27;46559;-53
2022/03/21 02:56:22;;;;;;;;;67.25;48.50;;;;;9.91;55.10;102332.56;5099420;27;45212;-53
2022/03/21 02:58:48;;;;;;;;;68.50;51.25;;;;;9.89;55.85;102331.78;5099600;27;45495;-53
2022/03/21 03:01:18;;;;;;;;;63.50;47.00;;;;;9.91;53.69;102337.03;5099376;27;45330;-52
2022/03/21 03:03:45;;;;;;;;;72.75;51.50;;;;;9.88;54.28;102335.41;5099360;27;45409;-53
2022/03/21 03:06:11;;;;;;;;;53.50;42.25;;;;;9.87;54.44;102336.38;5099078;27;45339;-53
2022/03/21 03:08:38;;;;;;;;;68.25;51.25;;;;;9.89;55.46;102346.91;5099080;27;45364;-53
2022/03/21 03:11:04;;;;;;;;;63.25;47.00;;;;;9.89;55.01;102339.75;5099779;27;45405;-54
2022/03/21 03:13:30;;;;;;;;;71.00;52.00;;;;;9.89;54.66;102349.56;5098946;27;46772;-52
2022/03/21 03:15:55;;;;;;;;;66.50;50.00;;;;;9.88;54.88;102350.50;5099243;27;45375;-53
2022/03/21 03:18:21;;;;;;;;;67.50;48.75;;;;;9.86;55.85;102350.63;5099281;27;45419;-53
2022/03/21 03:20:49;;;;;;;;;70.00;51.25;;;;;9.87;55.69;102346.16;5099220;27;45279;-53
2022/03/21 03:23:17;;;;;;;;;67.50;48.00;;;;;9.87;55.91;102347.00;5099111;27;46281;-52
2022/03/21 03:25:42;;;;;;;;;67.25;47.25;;;;;9.89;55.77;102339.75;5099066;27;45510;-54
2022/03/21 03:28:08;;;;;;;;;66.25;51.50;;;;;9.89;56.12;102330.94;5098937;27;45771;-56
2022/03/21 03:30:35;;;;;;;;;65.00;50.50;;;;;9.81;54.80;102323.47;5099125;27;45450;-52
2022/03/21 03:33:01;;;;;;;;;65.00;50.00;;;;;9.89;55.41;102339.75;5098813;27;47248;-53
2022/03/21 03:35:27;;;;;;;;;69.75;49.25;;;;;9.89;55.90;102346.91;5098584;27;45521;-52
2022/03/21 03:37:53;;;;;;;;;64.00;47.50;;;;;9.87;56.29;102352.31;5098794;27;45313;-53
2022/03/21 03:40:19;;;;;;;;;60.50;46.50;;;;;9.81;55.74;102346.56;5099085;27;45449;-52
2022/03/21 03:42:45;;;;;;;;;69.00;49.75;;;;;9.77;56.49;102343.25;5098447;27;47201;-52
2022/03/21 03:45:11;;;;;;;;;57.50;45.00;;;;;9.86;56.49;102357.72;5098718;27;45314;-53
2022/03/21 03:47:36;;;;;;;;;68.25;50.75;;;;;9.83;55.42;102348.16;5098675;27;45329;-53
2022/03/21 03:50:02;;;;;;;;;68.50;50.50;;;;;9.83;55.13;102361.47;5098121;27;45447;-53
2022/03/21 03:52:28;;;;;;;;;67.00;48.75;;;;;9.78;56.19;102357.41;5098469;27;46077;-52
2022/03/21 03:54:53;;;;;;;;;63.50;47.50;;;;;9.80;56.07;102361.66;5098405;27;45293;-52
2022/03/21 03:57:20;;;;;;;;;63.50;48.00;;;;;9.81;56.43;102359.84;5098662;27;45357;-51
2022/03/21 03:59:46;;;;;;;;;66.25;47.50;;;;;9.75;56.45;102351.31;5098766;27;45446;-53
2022/03/21 04:02:11;;;;;;;;;63.00;48.75;;;;;9.80;56.45;102366.13;5098114;27;46131;-52
2022/03/21 04:04:36;;;;;;;;;69.75;51.50;;;;;9.84;56.75;102368.47;5098138;27;45463;-53
2022/03/21 04:07:02;;;;;;;;;68.25;51.00;;;;;9.85;56.33;102361.34;5097367;27;45508;-53
2022/03/21 04:09:27;;;;;;;;;71.25;50.25;;;;;9.84;56.67;102359.66;5098679;27;45459;-52
2022/03/21 04:11:53;;;;;;;;;69.25;51.25;;;;;9.84;56.77;102359.66;5098283;27;45970;-53
2022/03/21 04:14:18;;;;;;;;;68.75;50.25;;;;;9.82;55.86;102357.09;5098210;27;45481;-53
2022/03/21 04:16:44;;;;;;;;;58.00;44.50;;;;;9.78;56.34;102354.75;5097114;27;45470;-54
2022/03/21 04:19:11;;;;;;;;;58.75;40.50;;;;;9.81;55.33;102363.34;5098525;27;45387;-51
2022/03/21 04:21:37;;;;;;;;;61.75;48.75;;;;;9.84;56.51;102372.94;5097756;27;46683;-53
2022/03/21 04:24:02;;;;;;;;;71.50;52.00;;;;;9.84;56.69;102378.25;5098098;27;45241;-53
2022/03/21 04:26:28;;;;;;;;;60.50;46.50;;;;;9.82;56.67;102378.38;5098025;27;45322;-52
2022/03/21 04:28:55;;;;;;;;;67.50;50.25;;;;;9.82;56.53;102382.78;5098551;27;45229;-53
2022/03/21 04:31:20;;;;;;;;;74.25;53.25;;;;;9.84;57.05;102386.22;5098219;27;46429;-53
2022/03/21 04:33:46;;;;;;;;;66.25;47.00;;;;;9.85;56.97;102387.91;5097965;27;45630;-54
2022/03/21 04:36:13;;;;;;;;;72.50;52.25;;;;;9.83;57.06;102388.03;5098150;27;45489;-53
2022/03/21 04:38:38;;;;;;;;;63.50;46.75;;;;;9.74;57.04;102373.56;5097065;27;45474;-54
2022/03/21 04:41:03;;;;;;;;;62.25;48.25;;;;;9.90;57.02;102396.44;5098036;27;45898;-52
2022/03/21 04:43:29;;;;;;;;;66.50;50.00;;;;;9.88;57.40;102391.22;5097625;27;45405;-54
2022/03/21 04:45:54;;;;;;;;;65.50;47.25;;;;;9.90;57.10;102392.00;5097656;27;45801;-55
2022/03/21 04:48:20;;;;;;;;;69.00;46.50;;;;;9.88;57.12;102398.34;5097927;27;45407;-54
2022/03/21 04:50:46;;;;;;;;;71.00;49.75;;;;;9.78;56.55;102382.19;5096128;27;46291;-53
2022/03/21 04:53:11;;;;;;;;;62.75;43.00;;;;;9.88;56.04;102407.19;5097738;27;45381;-55
2022/03/21 04:55:41;;;;;;;;;69.00;51.50;;;;;9.84;57.33;102402.16;5097521;27;45335;-52
2022/03/21 04:58:08;;;;;;;;;67.75;50.25;;;;;9.87;57.68;102412.59;5097743;27;45405;-53
2022/03/21 05:00:35;;;;;;;;;65.50;51.75;;;;;9.89;56.98;102402.72;5096756;27;47259;-53
2022/03/21 05:03:01;;;;;;;;;62.75;46.00;;;;;9.88;56.65;102414.31;5097055;27;45377;-53
2022/03/21 05:05:27;;;;;;;;;65.50;52.25;;;;;9.82;57.05;102393.44;5097090;27;45389;-52
2022/03/21 05:07:54;;;;;;;;;67.00;49.25;;;;;9.91;57.45;102408.78;5097682;27;45353;-54
2022/03/21 05:10:22;;;;;;;;;62.25;49.00;;;;;9.91;56.97;102416.78;5095642;27;46224;-56
2022/03/21 05:12:47;;;;;;;;;59.50;46.50;;;;;9.88;57.33;102415.16;5097172;27;45500;-56
2022/03/21 05:15:13;;;;;;;;;66.25;49.50;;;;;9.91;57.81;102412.31;5096046;27;45370;-55
2022/03/21 05:17:38;;;;;;;;;63.00;47.00;;;;;9.92;57.26;102410.50;5097569;27;45380;-54
2022/03/21 05:20:38;;;;;;;;;58.25;46.50;;;;;9.93;56.14;102409.53;5097441;27;45729;-53
2022/03/21 05:31:20;;;;;;;;;43.00;38.25;;;;;9.94;57.31;102414.78;5074255;28;45891;-53
2022/03/21 05:36:29;;;;;;;;;62.25;46.50;;;;;9.89;57.90;102413.34;5074288;28;45451;-50
2022/03/21 05:38:56;;;;;;;;;66.50;50.00;;;;;9.88;58.47;102423.13;5057577;28;45461;-53
2022/03/21 05:41:22;;;;;;;;;76.50;52.25;;;;;9.82;58.90;102422.66;5073920;28;45505;-55
2022/03/21 05:43:47;;;;;;;;;64.75;48.25;;;;;9.78;58.90;102423.84;5073572;28;45415;-54
2022/03/21 05:46:13;;;;;;;;;61.75;46.00;;;;;9.74;59.62;102432.03;5074227;28;45510;-55
2022/03/21 05:48:51;;;;;;;;;65.75;50.50;;;;;9.68;59.13;102429.75;5073962;28;45382;-54
2022/03/21 05:51:20;;;;;;;;;60.25;46.50;;;;;9.60;58.05;102410.78;5073802;28;46214;-54
2022/03/21 05:53:46;;;;;;;;;44.25;30.75;;;;;9.67;57.84;102432.50;5073937;28;45328;-54
2022/03/21 05:56:13;;;;;;;;;64.25;49.50;;;;;9.64;59.31;102422.91;5073882;28;45389;-54
2022/03/21 05:58:40;;;;;;;;;58.00;45.00;;;;;9.70;59.33;102441.13;5074384;28;45377;-53
2022/03/21 06:01:05;;;;;;;;;62.75;48.25;;;;;9.73;59.01;102440.06;5073755;28;45916;-52
2022/03/21 06:03:31;;;;;;;;;62.25;44.75;;;;;9.73;58.88;102443.59;5073818;28;45384;-54
2022/03/21 06:05:57;;;;;;;;;67.75;48.00;;;;;9.72;59.04;102439.22;5073167;28;45515;-55
2022/03/21 06:08:23;;;;;;;;;64.25;48.75;;;;;9.71;58.77;102439.34;5091109;27;45649;-53
2022/03/21 06:10:49;;;;;;;;;66.00;50.25;;;;;9.74;57.80;102452.44;5096361;27;46385;-55
2022/03/21 06:13:15;;;;;;;;;67.75;49.00;;;;;9.75;59.06;102452.31;5098487;27;45355;-52
2022/03/21 06:15:41;;;;;;;;;72.25;50.75;;;;;9.69;59.18;102443.88;5100193;27;45599;-55
2022/03/21 06:18:11;;;;;;;;;59.25;46.75;;;;;9.79;59.06;102452.13;5100179;27;45855;-57
2022/03/21 06:20:39;;;;;;;;;72.25;50.00;;;;;9.80;58.87;102451.16;5099836;27;46283;-53
2022/03/21 06:23:04;;;;;;;;;69.25;44.00;;;;;9.87;58.23;102463.97;5098521;27;45298;-54
2022/03/21 06:25:30;;;;;;;;;68.75;50.25;;;;;9.89;59.12;102467.34;5099940;27;45297;-54
2022/03/21 06:27:56;;;;;;;;;60.50;45.50;;;;;9.90;58.71;102474.41;5098903;27;45465;-54
2022/03/21 06:30:21;;;;;;;;;68.75;49.75;;;;;9.90;59.01;102476.19;5099735;27;45990;-52
2022/03/21 06:32:47;;;;;;;;;63.00;48.25;;;;;9.92;58.96;102480.47;5099751;27;45415;-53
2022/03/21 06:35:13;;;;;;;;;66.00;50.50;;;;;9.94;58.83;102481.22;5099796;27;45389;-53
2022/03/21 06:37:40;;;;;;;;;75.75;51.25;;;;;9.96;59.17;102473.13;5099721;27;45463;-53
2022/03/21 06:40:07;;;;;;;;;65.50;47.00;;;;;10.02;59.12;102493.16;5099665;27;46325;-53
2022/03/21 06:42:32;;;;;;;;;61.25;48.25;;;;;10.03;58.67;102487.75;5099664;27;45387;-55
2022/03/21 06:44:57;;;;;;;;;68.50;47.75;;;;;10.06;58.62;102490.19;5099678;27;45381;-52
2022/03/21 06:47:23;;;;;;;;;73.50;47.00;;;;;10.02;58.60;102480.69;5099728;27;45672;-53
2022/03/21 06:49:48;;;;;;;;;63.75;46.00;;;;;10.18;58.38;102501.81;5099192;27;46037;-53
2022/03/21 06:52:17;;;;;;;;;60.75;48.50;;;;;10.22;59.10;102504.19;5099287;27;45439;-54
2022/03/21 06:54:43;;;;;;;;;67.25;46.00;;;;;10.30;58.62;102508.19;5099404;27;45389;-50
2022/03/21 06:57:09;;;;;;;;;68.00;53.00;;;;;10.33;58.93;102506.19;5099829;27;45413;-52
2022/03/21 06:59:35;;;;;;;;;62.50;46.75;;;;;10.39;58.65;102511.06;5099371;27;47053;-52
2022/03/21 07:02:00;;;;;;;;;68.00;49.25;;;;;10.44;58.07;102506.28;5099481;27;45381;-52
2022/03/21 07:04:26;;;;;;;;;65.50;51.00;;;;;10.49;58.76;102508.63;5099307;27;45421;-53
2022/03/21 07:06:53;;;;;;;;;58.25;45.25;;;;;10.55;58.60;102513.56;5099460;27;45319;-55
2022/03/21 07:09:18;;;;;;;;;60.00;48.75;;;;;10.56;58.21;102512.59;5099176;27;46580;-49
2022/03/21 07:11:44;;;;;;;;;65.25;47.25;;;;;10.58;58.92;102515.19;5099179;27;45290;-52
2022/03/21 07:14:09;;;;;;;;;54.50;43.00;;;;;10.53;58.06;102507.47;5099426;27;45265;-50
2022/03/21 07:16:35;;;;;;;;;57.25;44.50;;;;;10.68;58.42;102517.09;5099283;27;45216;-52
2022/03/21 07:19:00;;;;;;;;;60.50;46.50;;;;;10.72;57.89;102520.41;5098803;27;46925;-53
2022/03/21 07:21:26;;;;;;;;;59.75;44.00;;;;;10.83;58.03;102522.31;5098905;27;45329;-53
2022/03/21 07:23:51;;;;;;;;;59.50;46.50;;;;;10.87;57.57;102522.03;5098137;27;45787;-53
2022/03/21 07:26:17;;;;;;;;;63.75;45.25;;;;;11.02;57.67;102508.63;5099081;27;45351;-50
2022/03/21 07:28:42;;;;;;;;;57.50;45.00;;;;;11.33;56.87;102516.16;5098783;27;45453;-53
2022/03/21 07:31:09;;;;;;;;;60.75;47.25;;;;;11.60;56.04;102517.84;5098857;27;45404;-53
2022/03/21 07:33:38;;;;;;;;;54.00;43.25;;;;;11.77;55.20;102521.94;5099094;27;45378;-53
2022/03/21 07:36:04;;;;;;;;;61.25;45.75;;;;;11.70;55.00;102503.72;5099148;27;45252;-52
2022/03/21 07:38:30;;;;;;;;;66.75;47.50;;;;;11.87;54.84;102531.00;5098433;27;46401;-52
2022/03/21 07:40:57;;;;;;;;;57.00;43.50;;;;;11.90;54.55;102518.31;5098672;27;45410;-53
2022/03/21 07:43:22;;;;;;;;;63.25;44.00;;;;;11.92;54.51;102521.69;5098615;27;45398;-50
2022/03/21 07:48:32;;;;;;;;;60.75;45.00;;;;;12.20;54.16;102525.00;5098364;27;45776;-51
2022/03/21 07:50:57;;;;;;;;;57.25;43.25;;;;;12.33;53.69;102506.28;5098327;27;45404;-49
2022/03/21 07:53:23;;;;;;;;;57.50;41.50;;;;;12.57;53.06;102512.44;5098328;27;45412;-51
2022/03/21 07:55:49;;;;;;;;;51.00;42.25;;;;;12.80;52.31;102509.81;5098724;27;45486;-51
2022/03/21 07:58:14;;;;;;;;;56.75;43.25;;;;;12.94;51.52;102520.31;5098185;27;47289;-57
2022/03/21 08:00:41;;;;;;;;;59.50;44.50;;;;;13.00;51.14;102519.81;5098490;27;45312;-54
2022/03/21 08:03:09;;;;;;;;;52.50;39.25;;;;;13.06;51.29;102535.38;5098569;27;45454;-52
2022/03/21 08:05:35;;;;;;;;;53.00;40.00;;;;;13.09;51.14;102524.44;5098558;27;45372;-53
2022/03/21 08:08:00;;;;;;;;;57.50;43.00;;;;;13.16;50.44;102528.34;5097839;27;45339;-51
2022/03/21 08:10:25;;;;;;;;;52.00;37.00;;;;;13.18;50.95;102530.88;5098113;27;45191;-52
2022/03/21 08:12:51;;;;;;;;;48.75;37.25;;;;;13.27;50.21;102529.34;5098319;27;45271;-52
2022/03/21 08:15:17;;;;;;;;;50.50;40.25;;;;;13.34;50.11;102528.75;5098412;27;45369;-52
2022/03/21 08:17:58;;;;;;;;;42.75;38.25;;;;;13.32;50.15;102538.72;5098059;27;45547;-53
2022/03/21 08:20:27;;;;;;;;;46.75;37.50;;;;;13.38;50.09;102537.38;5098048;27;45340;-52
2022/03/21 08:22:53;;;;;;;;;57.75;39.75;;;;;13.47;50.01;102531.28;5097932;27;45513;-53
2022/03/21 08:25:22;;;;;;;;;55.00;38.50;;;;;13.61;49.73;102536.41;5098063;27;45359;-50
2022/03/21 08:27:49;;;;;;;;;44.25;38.25;;;;;13.75;49.66;102534.44;5097851;27;46173;-52
2022/03/21 08:30:16;;;;;;;;;47.75;38.00;;;;;13.80;49.41;102535.78;5097843;27;45329;-53
2022/03/21 08:32:42;;;;;;;;;43.75;36.00;;;;;13.94;49.25;102529.28;5097873;27;45436;-53
2022/03/21 08:35:08;;;;;;;;;50.00;39.50;;;;;14.20;48.51;102540.56;5097837;27;45638;-51
2022/03/21 08:37:34;;;;;;;;;42.50;36.25;;;;;14.52;47.50;102529.00;5097662;27;46695;-51
2022/03/21 08:39:59;;;;;;;;;44.75;33.00;;;;;16.12;45.38;102531.03;5097694;27;45477;-52
2022/03/21 08:42:24;;;;;;;;;44.00;34.50;;;;;17.58;42.47;102531.69;5097726;27;45693;-56
2022/03/21 08:44:50;;;;;;;;;40.50;32.75;;;;;18.65;39.64;102523.69;5097904;27;45506;-53
2022/03/21 08:47:15;;;;;;;;;43.00;35.33;;;;;19.73;38.04;102523.38;5097432;27;45910;-51
2022/03/21 08:49:41;;;;;;;;;41.67;33.00;;;;;20.58;35.72;102514.06;5097375;27;45814;-53
2022/03/21 08:52:06;;;;;;;;;38.00;33.33;;;;;21.35;34.61;102530.66;5097544;27;45395;-53
2022/03/21 08:54:32;;;;;;;;;37.00;32.33;;;;;22.27;33.00;102524.63;5097719;27;45366;-55
2022/03/21 08:56:58;;;;;;;;;38.00;29.67;;;;;22.74;31.94;102516.25;5097300;27;46446;-53
2022/03/21 08:59:24;;;;;;;;;38.00;31.67;;;;;23.34;30.74;102522.59;5097384;27;45273;-54
2022/03/21 09:01:50;;;;;;;;;45.67;34.33;;;;;23.97;30.13;102526.53;5097414;27;45321;-55
2022/03/21 09:04:15;;;;;;;;;34.00;31.00;;;;;24.46;30.53;102516.81;5097632;27;45489;-53
2022/03/21 09:06:41;;;;;;;;;43.00;30.67;;;;;25.07;28.40;102517.94;5097542;27;45826;-54
2022/03/21 09:09:07;;;;;;;;;37.33;30.67;;;;;25.58;29.31;102503.97;5097146;27;45423;-53
2022/03/21 09:11:32;;;;;;;;;40.00;32.33;;;;;25.96;27.42;102513.53;5097644;27;45352;-52
2022/03/21 09:13:58;;;;;;;;;38.00;31.00;;;;;26.12;27.15;102516.72;5097497;27;45370;-54
2022/03/21 09:16:23;;;;;;;;;38.67;32.67;;;;;26.56;26.66;102512.59;5097107;27;46985;-52
2022/03/21 09:18:49;;;;;;;;;32.00;29.67;;;;;27.09;25.59;102504.38;5097193;27;45408;-52
2022/03/21 09:21:14;;;;;;;;;41.67;33.67;;;;;27.45;24.78;102505.69;5097023;27;45365;-52
2022/03/21 09:23:40;;;;;;;;;29.67;29.67;;;;;27.87;24.52;102497.94;5097515;27;45271;-53
2022/03/21 09:26:10;;;;;;;;;34.00;31.00;;;;;28.10;24.69;102506.41;5097063;27;46059;-53
2022/03/21 09:28:37;;;;;;;;;37.00;31.67;;;;;28.31;24.47;102496.16;5096990;27;45371;-53
2022/03/21 09:31:02;;;;;;;;;42.33;34.00;;;;;28.27;24.14;102503.97;5097111;27;45456;-56
2022/03/21 09:33:28;;;;;;;;;37.50;31.50;;;;;28.07;24.65;102504.13;5097331;27;45468;-50
2022/03/21 09:35:54;;;;;;;;;37.75;30.75;;;;;27.82;25.05;102504.09;5096981;27;45430;-50
2022/03/21 09:38:19;;;;;;;;;30.00;25.00;;;;;27.45;26.23;102500.22;5096690;27;45468;-50
2022/03/21 09:40:45;;;;;;;;;25.75;25.50;;;;;26.97;25.21;102489.66;5096830;27;45363;-56
2022/03/21 09:43:12;;;;;;;;;32.50;29.25;;;;;26.90;24.97;102493.44;5097117;27;45418;-53
2022/03/21 09:45:38;;;;;;;;;32.50;27.50;;;;;27.02;26.05;102489.84;5096805;27;46163;-52
2022/03/21 09:48:08;;;;;;;;;29.75;23.25;;;;;26.78;25.95;102499.53;5095172;27;45286;-54
2022/03/21 09:50:35;;;;;;;;;23.25;21.75;;;;;26.45;26.83;102488.66;5096535;27;45515;-54
2022/03/21 09:53:02;;;;;;;;;32.50;26.75;;;;;26.58;25.39;102487.78;5096923;27;45408;-54
2022/03/21 09:55:27;;;;;;;;;30.00;24.75;;;;;26.76;26.19;102484.44;5096447;27;45347;-55
2022/03/21 09:57:53;;;;;;;;;26.25;22.50;;;;;26.94;25.50;102487.34;5096643;27;45409;-55
2022/03/21 10:00:19;;;;;;;;;24.25;21.50;;;;;27.18;25.83;102476.78;5096836;27;45400;-52
2022/03/21 10:02:44;;;;;;;;;25.00;21.00;;;;;27.53;25.51;102469.09;5096741;27;45192;-54
2022/03/21 10:05:29;;;;;;;;;28.00;22.25;;;;;27.77;24.66;102471.09;5096338;27;45301;-56
2022/03/21 10:08:19;;;;;;;;;26.20;21.20;;;;;27.99;24.39;102474.31;5095308;27;45680;-55
2022/03/21 10:10:59;;;;;;;;;32.00;23.00;;;;;28.29;23.81;102462.72;5096327;27;45449;-52
2022/03/21 10:13:32;;;;;;;;;24.25;20.25;;;;;28.92;23.52;102469.94;5096535;27;45445;-49
2022/03/21 10:16:15;;;;;;;;;15.25;15.25;;;;;30.28;22.98;102474.88;5096262;27;46305;-52
2022/03/21 10:18:52;;;;;;;;;21.00;19.60;;;;;32.68;19.78;102482.47;5096516;27;45338;-54
2022/03/21 10:21:18;;;;;;;;;16.80;15.00;;;;;34.52;17.61;102475.44;5096331;27;45537;-55
2022/03/21 10:23:47;;;;;;;;;22.00;18.80;;;;;34.98;17.05;102466.31;5096538;27;45421;-56
2022/03/21 10:26:28;;;;;;;;;23.60;21.20;;;;;36.37;16.43;102462.69;5095854;27;46188;-56
2022/03/21 10:29:10;;;;;;;;;17.60;16.60;;;;;37.48;15.89;102464.56;5096347;27;45696;-55
2022/03/21 10:31:43;;;;;;;;;16.20;14.00;;;;;38.40;14.71;102459.13;5096433;27;45417;-54
2022/03/21 10:34:15;;;;;;;;;15.00;13.40;;;;;39.09;14.64;102448.59;5096267;27;45525;-51
2022/03/21 10:37:14;;;;;;;;;18.80;15.80;;;;;39.49;13.67;102441.63;5096130;27;46965;-51
2022/03/21 10:39:50;;;;;;;;;21.40;18.00;;;;;40.10;13.11;102440.66;5095916;27;45361;-52
2022/03/21 10:42:15;;;;;;;;;18.80;15.40;;;;;40.51;12.47;102427.91;5096379;27;45525;-50
2022/03/21 10:44:41;;;;;;;;;16.00;14.00;;;;;40.67;12.77;102437.66;5096310;27;45324;-53
2022/03/21 10:47:07;;;;;;;;;20.25;14.00;;;;;40.88;12.40;102436.06;5096086;27;46201;-52
2022/03/21 10:49:43;;;;;;;;;5.80;0.80;;;;;41.23;12.43;102449.56;5095936;27;45426;-52
2022/03/21 10:52:15;;;;;;;;;15.60;14.00;;;;;41.93;12.01;102437.00;5095940;27;45490;-50
2022/03/21 10:54:50;;;;;;;;;12.60;11.60;;;;;42.11;12.06;102441.56;5096200;27;45327;-51
2022/03/21 10:57:26;;;;;;;;;14.20;12.00;;;;;41.97;11.72;102436.03;5095802;27;45458;-51
2022/03/21 11:00:16;;;;;;;;;17.80;10.80;;;;;41.94;12.74;102428.31;5097444;27;45331;-53
2022/03/21 11:02:55;;;;;;;;;15.40;13.20;;;;;42.06;12.07;102424.94;5099304;27;45243;-54
2022/03/21 11:05:23;;;;;;;;;18.40;13.00;;;;;42.40;11.63;102417.88;5099602;27;45361;-53
2022/03/21 11:07:50;;;;;;;;;12.00;11.40;;;;;42.78;11.34;102427.38;5099199;27;45932;-54
2022/03/21 11:10:16;;;;;;;;;17.80;13.80;;;;;42.81;10.79;102425.91;5098971;27;45441;-57
2022/03/21 11:12:42;;;;;;;;;13.80;12.60;;;;;42.69;12.19;102406.97;5099213;27;45307;-55
2022/03/21 11:15:12;;;;;;;;;20.40;16.00;;;;;42.97;11.21;102417.84;5099281;27;45406;-56
2022/03/21 11:17:38;;;;;;;;;9.60;9.00;;;;;43.20;11.49;102413.81;5099101;27;45387;-56
2022/03/21 11:20:05;;;;;;;;;14.50;13.00;;;;;43.29;10.64;102411.00;5099059;27;45815;-57
2022/03/21 11:22:33;;;;;;;;;14.80;14.60;;;;;43.66;11.90;102403.03;5098988;27;45469;-59
2022/03/21 11:25:07;;;;;;;;;16.00;12.80;;;;;43.81;11.41;102400.53;5099095;27;45433;-56
2022/03/21 11:28:01;;;;;;;;;15.00;12.00;;;;;43.75;10.66;102396.28;5098903;27;46091;-56
2022/03/21 11:30:30;;;;;;;;;16.80;13.60;;;;;43.82;11.64;102398.56;5098824;27;45309;-56
2022/03/21 11:33:16;;;;;;;;;14.60;12.60;;;;;43.25;10.96;102399.63;5099037;27;45439;-55